createdAt,value
2022-11-25T00:00:41.241Z,26.67
2022-11-25T00:05:42.782Z,25.42
2022-11-25T00:10:44.337Z,23.98
2022-11-25T00:15:45.939Z,24.45
2022-11-25T00:20:47.507Z,25.17
2022-11-25T00:25:49.060Z,24.08
2022-11-25T00:30:50.609Z,24.10
2022-11-25T00:35:52.172Z,23.95
2022-11-25T00:41:11.998Z,25.25
2022-11-25T00:46:13.586Z,24.30
2022-11-25T00:51:15.131Z,25.90
2022-11-25T00:56:17.090Z,22.83
2022-11-25T01:01:18.774Z,24.65
2022-11-25T01:06:21.991Z,24.25
2022-11-25T01:11:24.664Z,24.65
2022-11-25T01:16:26.947Z,25.40
2022-11-25T01:21:31.437Z,29.27
2022-11-25T01:26:34.901Z,27.88
2022-11-25T01:31:37.332Z,29.73
2022-11-25T01:36:39.258Z,30.02
2022-11-25T01:41:40.808Z,30.25
2022-11-25T01:46:48.125Z,29.23
2022-11-25T01:52:12.829Z,27.90
2022-11-25T01:57:20.642Z,31.38
2022-11-25T02:02:22.578Z,30.83
2022-11-25T02:07:36.938Z,30.48
2022-11-25T02:12:41.529Z,32.63
2022-11-25T02:17:44.030Z,32.70
2022-11-25T02:23:10.459Z,31.10
2022-11-25T02:28:38.275Z,33.20
2022-11-25T02:33:39.816Z,33.90
2022-11-25T02:38:49.133Z,33.67
2022-11-25T02:43:51.129Z,35.08
2022-11-25T02:49:08.928Z,33.75
2022-11-25T02:54:15.806Z,34.20
2022-11-25T02:59:17.417Z,36.20
2022-11-25T03:04:19.221Z,38.13
2022-11-25T03:09:20.766Z,38.58
2022-11-25T03:14:22.331Z,37.42
2022-11-25T03:19:23.948Z,38.85
2022-11-25T03:24:25.512Z,40.33
2022-11-25T03:29:27.078Z,40.40
2022-11-25T03:34:28.837Z,41.30
2022-11-25T03:39:30.483Z,42.22
2022-11-25T03:44:32.066Z,42.80
2022-11-25T03:49:33.615Z,45.13
2022-11-25T03:54:35.498Z,43.22
2022-11-25T03:59:37.255Z,40.35
2022-11-25T04:04:38.840Z,38.50
2022-11-25T04:09:40.399Z,37.28
2022-11-25T04:14:41.948Z,37.03
2022-11-25T04:19:43.505Z,35.45
2022-11-25T04:24:45.048Z,36.58
2022-11-25T04:29:46.628Z,40.03
2022-11-25T04:34:48.213Z,36.45
2022-11-25T04:39:49.953Z,37.90
2022-11-25T04:45:14.032Z,36.72
2022-11-25T04:50:16.167Z,37.13
2022-11-25T04:55:17.832Z,37.15
2022-11-25T05:00:20.154Z,35.20
2022-11-25T05:05:21.949Z,35.60
2022-11-25T05:10:23.536Z,34.78
2022-11-25T05:15:25.082Z,34.35
2022-11-25T05:20:26.627Z,33.85
2022-11-25T05:25:28.170Z,36.40
2022-11-25T05:30:29.761Z,33.47
2022-11-25T05:35:31.341Z,31.95
2022-11-25T05:40:32.924Z,37.08
2022-11-25T05:45:34.636Z,38.22
2022-11-25T05:50:38.270Z,38.30
2022-11-25T05:55:39.933Z,39.85
2022-11-25T06:00:43.018Z,40.83
2022-11-25T06:05:45.024Z,41.15
2022-11-25T06:10:46.593Z,41.67
2022-11-25T06:15:48.348Z,41.28
2022-11-25T06:20:58.390Z,41.63
2022-11-25T06:26:14.980Z,39.05
2022-11-25T06:31:18.956Z,41.10
2022-11-25T06:36:21.889Z,40.65
2022-11-25T06:41:23.700Z,41.35
2022-11-25T06:46:25.717Z,38.65
2022-11-25T06:51:27.416Z,39.88
2022-11-25T06:56:29.515Z,39.55
2022-11-25T07:01:31.378Z,38.63
2022-11-25T07:06:33.604Z,38.17
2022-11-25T07:11:39.373Z,39.17
2022-11-25T07:16:43.949Z,38.63
2022-11-25T07:21:46.378Z,40.85
2022-11-25T07:26:47.928Z,42.72
2022-11-25T07:31:49.505Z,40.45
2022-11-25T07:36:51.115Z,50.70
2022-11-25T07:41:54.362Z,38.10
2022-11-25T07:46:55.946Z,35.58
2022-11-25T07:52:02.946Z,37.70
2022-11-25T07:57:04.495Z,36.53
2022-11-25T08:02:06.334Z,36.67
2022-11-25T08:07:07.977Z,39.10
2022-11-25T08:12:09.534Z,38.67
2022-11-25T08:17:11.287Z,41.08
2022-11-25T08:22:12.864Z,40.15
2022-11-25T08:27:14.457Z,39.13
2022-11-25T08:32:16.144Z,37.17
2022-11-25T08:37:17.720Z,37.60
2022-11-25T08:42:19.296Z,35.65
2022-11-25T08:47:21.397Z,36.88
2022-11-25T08:52:23.397Z,33.92
2022-11-25T08:57:24.985Z,36.30
2022-11-25T09:02:26.788Z,34.85
2022-11-25T09:07:30.808Z,33.38
2022-11-25T09:12:32.606Z,31.27
2022-11-25T09:17:37.511Z,30.38
2022-11-25T09:22:39.641Z,31.65
2022-11-25T09:27:41.208Z,27.15
2022-11-25T09:32:43.238Z,25.85
2022-11-25T09:37:45.082Z,25.15
2022-11-25T09:43:16.384Z,28.25
2022-11-25T09:48:55.092Z,36.42
2022-11-25T09:54:15.077Z,30.38
2022-11-25T09:59:24.831Z,33.97
2022-11-25T10:04:36.556Z,31.67
2022-11-25T10:09:38.485Z,30.98
2022-11-25T10:14:46.953Z,29.13
2022-11-25T10:19:51.703Z,26.17
2022-11-25T10:24:57.504Z,22.80
2022-11-25T10:30:05.146Z,22.23
2022-11-25T10:35:15.555Z,24.45
2022-11-25T10:40:17.723Z,22.75
2022-11-25T10:45:32.026Z,21.02
2022-11-25T10:51:02.840Z,19.83
2022-11-25T10:56:18.308Z,19.35
2022-11-25T11:01:19.890Z,18.58
2022-11-25T11:06:35.418Z,15.88
2022-11-25T11:11:48.989Z,17.20
2022-11-25T11:16:56.018Z,20.30
2022-11-25T11:22:13.970Z,18.95
2022-11-25T11:27:21.418Z,18.35
2022-11-25T11:32:24.953Z,20.58
2022-11-25T11:37:40.855Z,16.05
2022-11-25T11:42:52.091Z,16.60
2022-11-25T11:48:12.260Z,15.15
2022-11-25T11:53:13.754Z,13.93
2022-11-25T11:58:37.644Z,16.40
2022-11-25T12:03:51.555Z,17.58
2022-11-25T12:09:09.544Z,19.45
2022-11-25T12:14:17.118Z,17.67
2022-11-25T12:19:33.637Z,18.25
2022-11-25T12:24:41.074Z,18.27
2022-11-25T12:30:01.943Z,18.23
2022-11-25T12:35:22.658Z,19.00
2022-11-25T12:40:32.242Z,17.13
2022-11-25T12:45:33.839Z,17.95
2022-11-25T12:50:50.624Z,16.80
2022-11-25T12:55:54.739Z,16.90
2022-11-25T13:01:12.910Z,16.33
2022-11-25T13:06:28.989Z,14.85
2022-11-25T13:11:33.639Z,16.02
2022-11-25T13:16:35.974Z,16.38
2022-11-25T13:22:06.464Z,17.98
2022-11-25T13:27:40.216Z,22.67
2022-11-25T13:32:42.396Z,18.88
2022-11-25T13:37:44.014Z,20.45
2022-11-25T13:42:45.854Z,19.45
2022-11-25T13:47:49.446Z,18.23
2022-11-25T13:53:00.647Z,18.05
2022-11-25T13:58:04.935Z,15.38
2022-11-25T14:03:44.919Z,14.45
2022-11-25T14:09:01.823Z,13.60
2022-11-25T14:14:03.354Z,13.45
2022-11-25T14:19:52.739Z,15.48
2022-11-25T14:25:26.796Z,15.82
2022-11-25T14:30:28.639Z,18.33
2022-11-25T14:35:45.094Z,19.63
2022-11-25T14:40:58.053Z,17.30
2022-11-25T14:46:17.624Z,19.33
2022-11-25T14:51:19.646Z,13.70
2022-11-25T14:56:29.168Z,16.08
2022-11-25T15:01:33.471Z,15.70
2022-11-25T15:06:43.473Z,12.90
2022-11-25T15:11:45.446Z,12.45
2022-11-25T15:16:47.157Z,14.32
2022-11-25T15:22:22.018Z,13.27
2022-11-25T15:27:28.823Z,12.45
2022-11-25T15:32:37.523Z,13.15
2022-11-25T15:37:39.116Z,13.20
2022-11-25T15:42:42.438Z,12.80
2022-11-25T15:47:45.494Z,13.50
2022-11-25T15:52:51.887Z,18.30
2022-11-25T15:57:54.912Z,18.08
2022-11-25T16:02:58.301Z,21.60
2022-11-25T16:08:21.359Z,23.13
2022-11-25T16:13:23.223Z,27.95
2022-11-25T16:18:40.439Z,22.15
2022-11-25T16:23:47.727Z,22.35
2022-11-25T16:28:55.638Z,21.45
2022-11-25T16:34:01.970Z,23.40
2022-11-25T16:39:03.667Z,24.20
2022-11-25T16:44:10.932Z,31.55
2022-11-25T16:49:17.968Z,42.63
2022-11-25T16:54:21.432Z,57.67
2022-11-25T16:59:30.584Z,39.03
2022-11-25T17:04:32.149Z,49.60
2022-11-25T17:09:33.695Z,30.45
2022-11-25T17:14:38.094Z,28.50
2022-11-25T17:19:40.123Z,30.42
2022-11-25T17:24:42.453Z,27.15
2022-11-25T17:29:45.024Z,24.55
2022-11-25T17:34:46.781Z,21.35
2022-11-25T17:39:48.418Z,19.15
2022-11-25T17:44:52.994Z,18.60
2022-11-25T17:49:55.923Z,23.13
2022-11-25T17:54:57.459Z,22.30
2022-11-25T17:59:59.215Z,39.17
2022-11-25T18:05:01.360Z,31.70
2022-11-25T18:10:02.999Z,32.65
2022-11-25T18:15:08.350Z,30.40
2022-11-25T18:20:19.584Z,22.73
2022-11-25T18:25:27.034Z,21.88
2022-11-25T18:30:31.031Z,18.02
2022-11-25T18:35:36.691Z,17.27
2022-11-25T18:40:42.433Z,16.30
2022-11-25T18:45:45.010Z,17.05
2022-11-25T18:50:49.227Z,17.73
2022-11-25T18:55:50.898Z,18.60
2022-11-25T19:00:54.652Z,19.67
2022-11-25T19:05:59.422Z,19.92
2022-11-25T19:11:01.150Z,23.08
2022-11-25T19:16:08.037Z,25.25
2022-11-25T19:21:15.984Z,25.92
2022-11-25T19:26:26.522Z,25.95
2022-11-25T19:31:32.184Z,25.65
2022-11-25T19:36:35.085Z,28.30
2022-11-25T19:41:36.867Z,26.33
2022-11-25T19:47:13.089Z,25.67
2022-11-25T19:52:04.503Z,26.52
2022-11-25T19:57:15.627Z,26.92
2022-11-25T20:02:20.633Z,26.85
2022-11-25T20:07:22.804Z,27.95
2022-11-25T20:12:28.468Z,26.83
2022-11-25T20:17:32.779Z,28.20
2022-11-25T20:22:37.223Z,26.48
2022-11-25T20:27:38.774Z,26.90
2022-11-25T20:32:40.463Z,25.60
2022-11-25T20:37:54.372Z,25.73
2022-11-25T20:42:57.214Z,24.98
2022-11-25T20:47:59.257Z,24.65
2022-11-25T20:53:00.859Z,23.58
2022-11-25T20:58:10.247Z,23.65
2022-11-25T21:08:25.835Z,24.02
2022-11-25T21:13:31.048Z,26.35
2022-11-25T21:18:32.604Z,25.95
2022-11-25T21:23:36.993Z,26.30
2022-11-25T21:28:42.510Z,25.85
2022-11-25T21:33:48.387Z,25.95
2022-11-25T21:38:52.933Z,26.92
2022-11-25T21:43:56.039Z,27.70
2022-11-25T21:48:57.612Z,27.58
2022-11-25T21:53:59.163Z,27.85
2022-11-25T21:59:03.102Z,30.13
2022-11-25T22:04:04.769Z,30.15
2022-11-25T22:09:06.306Z,30.48
2022-11-25T22:14:19.282Z,34.13
2022-11-25T22:19:23.528Z,33.50
2022-11-25T22:24:25.088Z,37.20
2022-11-25T22:29:33.209Z,39.92
2022-11-25T22:34:34.774Z,38.88
2022-11-25T22:39:36.354Z,36.90
2022-11-25T22:44:43.006Z,41.22
2022-11-25T22:49:47.456Z,41.13
2022-11-25T22:54:49.446Z,52.00
2022-11-25T22:59:50.992Z,52.28
2022-11-25T23:04:56.107Z,45.15
2022-11-25T23:09:57.704Z,42.00
2022-11-25T23:14:59.239Z,38.10
2022-11-25T23:20:00.799Z,37.95
2022-11-25T23:25:02.334Z,36.85
2022-11-25T23:30:04.155Z,26.40
2022-11-25T23:35:06.329Z,30.35
2022-11-25T23:40:17.306Z,29.63
2022-11-25T23:45:21.199Z,28.55
2022-11-25T23:50:25.465Z,28.83
2022-11-25T23:55:31.164Z,25.95
